createdAt,value
2023-03-04T00:01:34.576Z,56.18
2023-03-04T00:06:38.349Z,57.20
2023-03-04T00:11:41.428Z,58.92
2023-03-04T00:16:44.832Z,59.90
2023-03-04T00:21:48.092Z,60.78
2023-03-04T00:26:51.699Z,68.16
2023-03-04T00:31:55.081Z,60.90
2023-03-04T00:37:01.704Z,50.51
2023-03-04T00:42:05.424Z,52.03
2023-03-04T00:47:08.844Z,54.62
2023-03-04T00:52:12.104Z,56.27
2023-03-04T00:57:15.333Z,57.93
2023-03-04T01:02:19.381Z,58.55
2023-03-04T01:07:23.002Z,59.95
2023-03-04T01:12:26.114Z,60.67
2023-03-04T01:17:29.453Z,61.00
2023-03-04T01:22:33.049Z,61.62
2023-03-04T01:27:36.257Z,66.78
2023-03-04T01:32:39.554Z,64.16
2023-03-04T01:37:42.794Z,51.63
2023-03-04T01:42:46.424Z,51.34
2023-03-04T01:47:50.722Z,53.61
2023-03-04T01:52:54.118Z,55.91
2023-03-04T01:57:57.961Z,57.07
2023-03-04T02:03:11.628Z,58.50
2023-03-04T02:08:17.155Z,58.97
2023-03-04T02:13:20.457Z,60.60
2023-03-04T02:18:26.280Z,61.21
2023-03-04T02:23:38.602Z,61.46
2023-03-04T02:28:42.574Z,66.95
2023-03-04T02:33:45.873Z,64.18
2023-03-04T02:38:53.557Z,51.75
2023-03-04T02:43:57.366Z,51.23
2023-03-04T02:49:00.704Z,53.58
2023-03-04T02:54:05.344Z,54.99
2023-03-04T02:59:09.208Z,57.05
2023-03-04T03:04:13.149Z,58.86
2023-03-04T03:09:18.452Z,59.41
2023-03-04T03:14:21.858Z,60.22
2023-03-04T03:19:25.634Z,60.89
2023-03-04T03:24:29.299Z,66.45
2023-03-04T03:29:32.518Z,60.56
2023-03-04T03:34:35.890Z,50.43
2023-03-04T03:39:42.167Z,51.66
2023-03-04T03:44:45.700Z,53.40
2023-03-04T03:49:51.648Z,54.55
2023-03-04T03:54:54.820Z,56.10
2023-03-04T03:59:58.137Z,57.42
2023-03-04T04:05:01.423Z,58.32
2023-03-04T04:10:05.743Z,59.47
2023-03-04T04:15:12.193Z,59.95
2023-03-04T04:20:15.579Z,60.59
2023-03-04T04:25:18.695Z,60.82
2023-03-04T04:30:21.906Z,61.14
2023-03-04T04:35:25.175Z,61.41
2023-03-04T04:40:28.321Z,61.38
2023-03-04T04:45:31.825Z,61.55
2023-03-04T04:50:34.922Z,61.65
2023-03-04T04:55:38.167Z,61.80
2023-03-04T05:00:41.313Z,61.96
2023-03-04T05:05:44.459Z,61.97
2023-03-04T05:10:48.382Z,67.19
2023-03-04T05:15:53.612Z,61.58
2023-03-04T05:20:59.699Z,51.44
2023-03-04T05:26:05.231Z,52.62
2023-03-04T05:31:08.880Z,54.32
2023-03-04T05:36:12.250Z,56.47
2023-03-04T05:41:15.897Z,57.54
2023-03-04T05:46:25.792Z,58.56
2023-03-04T05:51:29.254Z,58.98
2023-03-04T05:56:33.775Z,60.32
2023-03-04T06:01:36.978Z,60.54
2023-03-04T06:06:40.356Z,60.95
2023-03-04T06:11:43.442Z,61.37
2023-03-04T06:16:46.836Z,61.79
2023-03-04T06:21:50.150Z,67.94
2023-03-04T06:26:53.573Z,60.70
2023-03-04T06:31:56.903Z,51.11
2023-03-04T06:37:00.416Z,52.31
2023-03-04T06:42:03.843Z,54.09
2023-03-04T06:47:08.426Z,55.48
2023-03-04T06:52:13.195Z,57.03
2023-03-04T06:57:16.581Z,57.86
2023-03-04T07:02:19.878Z,58.69
2023-03-04T07:07:23.944Z,59.40
2023-03-04T07:12:27.164Z,60.10
2023-03-04T07:17:30.634Z,60.50
2023-03-04T07:22:33.866Z,60.73
2023-03-04T07:27:38.813Z,60.86
2023-03-04T07:32:42.178Z,61.09
2023-03-04T07:37:45.392Z,60.85
2023-03-04T07:42:52.464Z,61.01
2023-03-04T07:47:55.853Z,61.08
2023-03-04T07:52:59.017Z,61.18
2023-03-04T07:58:03.374Z,61.42
2023-03-04T08:03:06.435Z,61.52
2023-03-04T08:08:09.714Z,61.56
2023-03-04T08:13:12.885Z,61.71
2023-03-04T08:18:16.227Z,61.68
2023-03-04T08:23:19.842Z,61.67
2023-03-04T08:28:23.316Z,61.57
2023-03-04T08:33:26.657Z,61.46
2023-03-04T08:38:29.973Z,61.39
2023-03-04T08:43:34.882Z,61.11
2023-03-04T08:48:39.101Z,61.12
2023-03-04T08:53:42.451Z,61.37
2023-03-04T08:58:45.837Z,61.20
2023-03-04T09:03:49.225Z,61.22
2023-03-04T09:08:52.530Z,61.10
2023-03-04T09:13:55.786Z,61.08
2023-03-04T09:19:00.692Z,61.07
2023-03-04T09:24:04.628Z,60.70
2023-03-04T09:29:07.885Z,60.66
2023-03-04T09:34:11.174Z,60.41
2023-03-04T09:39:14.336Z,60.70
2023-03-04T09:44:28.959Z,60.74
2023-03-04T09:49:32.910Z,60.65
2023-03-04T09:55:05.318Z,60.54
2023-03-04T10:00:21.283Z,60.35
2023-03-04T10:05:27.888Z,60.01
2023-03-04T10:10:36.603Z,59.85
2023-03-04T10:15:44.965Z,59.61
2023-03-04T10:20:54.028Z,59.63
2023-03-04T10:26:00.697Z,59.62
2023-03-04T10:31:06.781Z,59.55
2023-03-04T10:36:31.112Z,59.63
2023-03-04T10:41:34.378Z,59.78
2023-03-04T10:46:45.960Z,59.86
2023-03-04T10:52:04.454Z,59.94
2023-03-04T10:57:23.622Z,59.92
2023-03-04T11:02:31.012Z,59.95
2023-03-04T11:07:54.624Z,60.11
2023-03-04T11:12:58.735Z,60.40
2023-03-04T11:18:06.211Z,60.68
2023-03-04T11:23:39.983Z,60.68
2023-03-04T11:28:52.101Z,60.70
2023-03-04T11:34:29.526Z,61.70
2023-03-04T11:39:41.988Z,61.21
2023-03-04T11:44:45.261Z,61.29
2023-03-04T11:50:10.196Z,61.65
2023-03-04T11:55:42.246Z,62.15
2023-03-04T12:01:06.979Z,67.26
2023-03-04T12:06:27.489Z,52.38
2023-03-04T12:11:40.537Z,52.62
2023-03-04T12:17:09.876Z,55.12
2023-03-04T12:22:31.816Z,56.53
2023-03-04T12:28:03.885Z,57.98
2023-03-04T12:33:25.169Z,59.35
2023-03-04T12:38:31.068Z,60.43
2023-03-04T12:43:52.442Z,61.21
2023-03-04T12:49:03.222Z,61.20
2023-03-04T12:54:12.199Z,61.57
2023-03-04T12:59:21.352Z,61.82
2023-03-04T13:04:38.040Z,66.21
2023-03-04T13:10:04.868Z,61.89
2023-03-04T13:15:08.220Z,51.35
2023-03-04T13:20:18.071Z,50.60
2023-03-04T13:25:44.402Z,53.29
2023-03-04T13:30:57.277Z,55.20
2023-03-04T13:36:05.580Z,56.97
2023-03-04T13:41:20.753Z,57.77
2023-03-04T13:46:24.923Z,59.16
2023-03-04T13:51:42.029Z,59.98
2023-03-04T13:57:10.217Z,60.51
2023-03-04T14:02:19.193Z,60.48
2023-03-04T14:07:29.714Z,60.61
2023-03-04T14:12:36.603Z,61.15
2023-03-04T14:17:42.031Z,61.16
2023-03-04T14:22:45.545Z,60.95
2023-03-04T14:27:49.488Z,60.95
2023-03-04T14:32:54.978Z,61.13
2023-03-04T14:38:18.628Z,61.29
2023-03-04T14:43:23.372Z,61.66
2023-03-04T14:48:32.668Z,61.45
2023-03-04T14:53:36.020Z,61.76
2023-03-04T14:58:55.325Z,62.13
2023-03-04T15:04:12.824Z,67.90
2023-03-04T15:09:21.417Z,61.19
2023-03-04T15:14:46.358Z,49.88
2023-03-04T15:19:59.501Z,50.70
2023-03-04T15:26:07.192Z,52.67
2023-03-04T15:31:21.587Z,54.22
2023-03-04T15:44:03.590Z,56.73
2023-03-04T15:49:06.807Z,57.76
2023-03-04T15:54:14.276Z,58.03
2023-03-04T15:59:17.927Z,58.34
2023-03-04T16:04:21.673Z,58.85
2023-03-04T16:09:25.184Z,58.99
2023-03-04T16:14:32.795Z,58.37
2023-03-04T16:19:36.496Z,58.31
2023-03-04T16:24:40.017Z,58.43
2023-03-04T16:29:43.223Z,58.40
2023-03-04T16:34:46.747Z,58.26
2023-03-04T16:39:51.141Z,58.38
2023-03-04T16:44:55.561Z,58.04
2023-03-04T16:49:59.045Z,58.02
2023-03-04T16:55:05.002Z,58.05
2023-03-04T17:00:10.735Z,57.98
2023-03-04T17:05:19.270Z,57.88
2023-03-04T17:10:23.970Z,57.99
2023-03-04T17:15:27.316Z,58.07
2023-03-04T17:20:30.656Z,57.86
2023-03-04T17:25:34.245Z,57.67
2023-03-04T17:30:38.349Z,57.69
2023-03-04T17:35:41.511Z,57.53
2023-03-04T17:40:45.185Z,57.57
2023-03-04T17:45:48.972Z,57.48
2023-03-04T17:50:53.016Z,57.53
2023-03-04T17:56:00.292Z,57.61
2023-03-04T18:01:15.317Z,57.61
2023-03-04T18:06:19.706Z,57.61
2023-03-04T18:11:25.305Z,57.70
2023-03-04T18:16:29.227Z,57.77
2023-03-04T18:21:32.839Z,57.82
2023-03-04T18:26:36.283Z,57.72
2023-03-04T18:31:39.913Z,57.70
2023-03-04T18:36:43.432Z,57.78
2023-03-04T18:41:46.809Z,57.86
2023-03-04T18:46:56.538Z,58.07
2023-03-04T18:51:59.803Z,58.25
2023-03-04T18:57:09.730Z,58.34
2023-03-04T19:02:54.356Z,58.54
2023-03-04T19:07:57.632Z,58.69
2023-03-04T19:13:01.046Z,58.89
2023-03-04T19:18:05.740Z,58.99
2023-03-04T19:23:10.370Z,59.00
2023-03-04T19:28:13.943Z,59.19
2023-03-04T19:33:17.182Z,59.24
2023-03-04T19:38:20.293Z,59.28
2023-03-04T19:43:23.508Z,59.33
2023-03-04T19:48:26.824Z,59.36
2023-03-04T19:53:30.150Z,59.42
2023-03-04T19:58:34.005Z,59.57
2023-03-04T20:03:37.293Z,59.72
2023-03-04T20:08:40.715Z,59.70
2023-03-04T20:13:44.049Z,59.90
2023-03-04T20:18:47.332Z,59.76
2023-03-04T20:23:51.112Z,59.72
2023-03-04T20:28:54.811Z,59.73
2023-03-04T20:33:59.968Z,59.74
2023-03-04T20:39:10.264Z,59.61
2023-03-04T20:44:21.882Z,60.16
2023-03-04T20:49:27.964Z,60.15
2023-03-04T20:54:31.303Z,59.73
2023-03-04T20:59:35.699Z,59.58
2023-03-04T21:04:39.334Z,59.70
2023-03-04T21:09:44.101Z,59.19
2023-03-04T21:14:47.520Z,59.33
2023-03-04T21:19:50.672Z,59.68
2023-03-04T21:24:54.139Z,59.90
2023-03-04T21:29:58.382Z,60.31
2023-03-04T21:35:01.902Z,60.54
2023-03-04T21:40:05.821Z,60.62
2023-03-04T21:45:10.952Z,60.58
2023-03-04T21:50:14.743Z,60.52
2023-03-04T21:55:18.136Z,60.21
2023-03-04T22:00:21.936Z,60.16
2023-03-04T22:05:25.379Z,60.19
2023-03-04T22:10:29.224Z,60.19
2023-03-04T22:15:33.002Z,60.16
2023-03-04T22:20:39.514Z,60.18
2023-03-04T22:25:42.924Z,60.16
2023-03-04T22:30:46.480Z,60.08
2023-03-04T22:35:50.492Z,60.09
2023-03-04T22:40:53.713Z,59.93
2023-03-04T22:46:00.369Z,59.85
2023-03-04T22:51:08.789Z,59.89
2023-03-04T22:56:13.423Z,59.98
2023-03-04T23:01:17.980Z,59.96
2023-03-04T23:06:27.982Z,60.10
2023-03-04T23:11:35.623Z,60.16
2023-03-04T23:16:43.542Z,60.19
2023-03-04T23:21:46.868Z,60.17
2023-03-04T23:26:52.568Z,60.26
2023-03-04T23:31:55.941Z,60.25
2023-03-04T23:36:59.145Z,60.39
2023-03-04T23:42:02.496Z,60.43
2023-03-04T23:47:06.162Z,60.21
2023-03-04T23:52:10.117Z,60.08
2023-03-04T23:57:13.411Z,59.98
